createdAt,value
2019-05-03T00:00:33.777Z,927.71
2019-05-03T00:01:33.821Z,927.70
2019-05-03T00:02:33.875Z,927.69
2019-05-03T00:03:33.916Z,927.71
2019-05-03T00:04:33.956Z,927.71
2019-05-03T00:05:34.010Z,927.73
2019-05-03T00:06:34.051Z,927.74
2019-05-03T00:07:34.103Z,927.79
2019-05-03T00:08:34.152Z,927.77
2019-05-03T00:09:34.185Z,927.77
2019-05-03T00:10:34.249Z,927.79
2019-05-03T00:11:34.304Z,927.78
2019-05-03T00:12:34.369Z,927.76
2019-05-03T00:13:34.402Z,927.74
2019-05-03T00:14:34.432Z,927.73
2019-05-03T00:15:34.463Z,927.76
2019-05-03T00:16:34.535Z,927.74
2019-05-03T00:17:34.558Z,927.74
2019-05-03T00:18:34.612Z,927.75
2019-05-03T00:19:34.655Z,927.71
2019-05-03T00:20:34.706Z,927.73
2019-05-03T00:21:34.752Z,927.73
2019-05-03T00:22:34.821Z,927.70
2019-05-03T00:23:34.848Z,927.71
2019-05-03T00:24:34.917Z,927.66
2019-05-03T00:25:34.954Z,927.69
2019-05-03T00:26:34.979Z,927.70
2019-05-03T00:27:35.042Z,927.66
2019-05-03T00:28:35.071Z,927.69
2019-05-03T00:29:35.170Z,927.72
2019-05-03T00:30:35.175Z,927.77
2019-05-03T00:31:35.211Z,927.78
2019-05-03T00:32:35.271Z,927.84
2019-05-03T00:33:35.313Z,927.84
2019-05-03T00:34:35.363Z,927.87
2019-05-03T00:35:35.412Z,927.83
2019-05-03T00:36:35.462Z,927.87
2019-05-03T00:37:35.555Z,927.87
2019-05-03T00:38:35.554Z,927.85
2019-05-03T00:39:35.608Z,927.85
2019-05-03T00:40:35.709Z,927.79
2019-05-03T00:41:35.698Z,927.87
2019-05-03T00:42:35.751Z,927.86
2019-05-03T00:43:35.806Z,927.88
2019-05-03T00:44:35.853Z,927.86
2019-05-03T00:45:35.896Z,927.85
2019-05-03T00:46:35.936Z,927.85
2019-05-03T00:47:35.994Z,927.85
2019-05-03T00:48:36.026Z,927.80
2019-05-03T00:49:36.099Z,927.82
2019-05-03T00:50:36.132Z,927.81
2019-05-03T00:51:36.180Z,927.84
2019-05-03T00:52:36.230Z,927.83
2019-05-03T00:53:36.274Z,927.80
2019-05-03T00:54:36.306Z,927.84
2019-05-03T00:55:36.373Z,927.80
2019-05-03T00:56:36.420Z,927.82
2019-05-03T00:57:36.423Z,927.82
2019-05-03T00:58:36.504Z,927.79
2019-05-03T00:59:36.543Z,927.83
2019-05-03T01:00:36.612Z,927.86
2019-05-03T01:01:36.632Z,927.89
2019-05-03T01:02:36.733Z,927.91
2019-05-03T01:03:36.749Z,927.94
2019-05-03T01:04:36.838Z,927.98
2019-05-03T01:05:36.810Z,927.99
2019-05-03T01:06:36.878Z,928.04
2019-05-03T01:07:36.960Z,928.05
2019-05-03T01:08:36.971Z,928.07
2019-05-03T01:09:37.024Z,928.08
2019-05-03T01:10:37.065Z,928.05
2019-05-03T01:11:37.120Z,928.07
2019-05-03T01:12:37.166Z,928.07
2019-05-03T01:13:37.204Z,928.07
2019-05-03T01:14:37.248Z,928.10
2019-05-03T01:15:37.295Z,928.09
2019-05-03T01:16:37.350Z,928.06
2019-05-03T01:17:37.427Z,928.07
2019-05-03T01:18:37.431Z,928.09
2019-05-03T01:19:37.483Z,928.06
2019-05-03T01:20:37.546Z,928.08
2019-05-03T01:21:37.584Z,928.09
2019-05-03T01:22:37.620Z,928.00
2019-05-03T01:23:37.690Z,928.04
2019-05-03T01:24:37.721Z,928.05
2019-05-03T01:25:37.767Z,927.98
2019-05-03T01:26:37.828Z,927.97
2019-05-03T01:27:37.863Z,927.97
2019-05-03T01:28:37.919Z,927.94
2019-05-03T01:29:37.962Z,927.93
2019-05-03T01:30:37.999Z,927.95
2019-05-03T01:31:38.078Z,927.92
2019-05-03T01:32:38.100Z,927.90
2019-05-03T01:33:38.162Z,927.96
2019-05-03T01:34:38.197Z,927.93
2019-05-03T01:35:38.258Z,927.91
2019-05-03T01:36:38.285Z,927.92
2019-05-03T01:37:38.346Z,927.91
2019-05-03T01:38:38.355Z,927.91
2019-05-03T01:39:38.425Z,927.87
2019-05-03T01:40:38.486Z,927.88
2019-05-03T01:41:38.531Z,927.84
2019-05-03T01:42:38.571Z,927.86
2019-05-03T01:43:38.618Z,927.87
2019-05-03T01:44:38.702Z,927.87
2019-05-03T01:45:38.719Z,927.90
2019-05-03T01:46:38.806Z,927.93
2019-05-03T01:47:38.801Z,927.92
2019-05-03T01:48:38.838Z,927.91
2019-05-03T01:49:38.902Z,927.93
2019-05-03T01:50:38.923Z,927.94
2019-05-03T01:51:39.020Z,927.97
2019-05-03T01:52:39.037Z,927.94
2019-05-03T01:53:39.094Z,927.96
2019-05-03T01:54:39.136Z,927.90
2019-05-03T01:55:44.468Z,927.90
2019-05-03T01:56:39.215Z,927.84
2019-05-03T01:57:39.263Z,927.84
2019-05-03T01:58:39.306Z,927.80
2019-05-03T01:59:39.354Z,927.78
2019-05-03T02:00:39.387Z,927.77
2019-05-03T02:01:39.469Z,927.83
2019-05-03T02:02:39.542Z,927.83
2019-05-03T02:03:41.718Z,927.87
2019-05-03T02:04:41.648Z,927.85
2019-05-03T02:05:39.663Z,927.87
2019-05-03T02:06:39.684Z,927.89
2019-05-03T02:07:39.741Z,927.90
2019-05-03T02:08:41.743Z,927.89
2019-05-03T02:09:41.586Z,927.92
2019-05-03T02:10:39.852Z,927.95
2019-05-03T02:11:41.986Z,927.95
2019-05-03T02:12:41.726Z,927.97
2019-05-03T02:13:40.014Z,927.90
2019-05-03T02:14:42.173Z,927.90
2019-05-03T02:15:42.019Z,927.86
2019-05-03T02:16:41.952Z,927.90
2019-05-03T02:17:40.214Z,927.90
2019-05-03T02:18:42.262Z,927.93
2019-05-03T02:19:42.000Z,927.95
2019-05-03T02:20:41.817Z,927.99
2019-05-03T02:21:41.684Z,928.05
2019-05-03T02:22:40.436Z,928.04
2019-05-03T02:23:42.484Z,928.01
2019-05-03T02:24:42.191Z,928.07
2019-05-03T02:25:41.923Z,928.07
2019-05-03T02:26:42.339Z,928.10
2019-05-03T02:27:42.343Z,928.12
2019-05-03T02:28:42.210Z,928.11
2019-05-03T02:29:41.857Z,928.16
2019-05-03T02:30:43.699Z,928.10
2019-05-03T02:31:43.654Z,928.18
2019-05-03T02:32:43.651Z,928.22
2019-05-03T02:33:43.181Z,928.19
2019-05-03T02:34:44.045Z,928.22
2019-05-03T02:35:43.007Z,928.19
2019-05-03T02:36:42.829Z,928.22
2019-05-03T02:37:43.673Z,928.21
2019-05-03T02:38:42.995Z,928.14
2019-05-03T02:39:42.691Z,928.17
2019-05-03T02:40:42.934Z,928.17
2019-05-03T02:41:41.322Z,928.15
2019-05-03T02:42:41.339Z,928.15
2019-05-03T02:43:41.382Z,928.15
2019-05-03T02:44:41.440Z,928.13
2019-05-03T02:45:41.482Z,928.14
2019-05-03T02:46:41.565Z,928.10
2019-05-03T02:47:41.565Z,928.09
2019-05-03T02:48:41.604Z,928.11
2019-05-03T02:49:41.679Z,928.08
2019-05-03T02:50:41.724Z,928.09
2019-05-03T02:51:41.798Z,928.12
2019-05-03T02:52:41.798Z,928.10
2019-05-03T02:53:41.867Z,928.06
2019-05-03T02:54:41.967Z,928.09
2019-05-03T02:55:41.962Z,928.10
2019-05-03T02:56:42.031Z,928.10
2019-05-03T02:57:42.037Z,928.07
2019-05-03T02:58:42.094Z,928.09
2019-05-03T02:59:42.132Z,928.14
2019-05-03T03:00:42.186Z,928.09
2019-05-03T03:01:42.198Z,928.08
2019-05-03T03:02:42.267Z,928.09
2019-05-03T03:03:45.423Z,928.10
2019-05-03T03:04:42.366Z,928.12
2019-05-03T03:05:42.414Z,928.08
2019-05-03T03:06:42.448Z,928.08
2019-05-03T03:07:42.492Z,928.12
2019-05-03T03:08:45.330Z,928.09
2019-05-03T03:09:45.124Z,928.08
2019-05-03T03:10:45.348Z,928.08
2019-05-03T03:11:42.699Z,928.07
2019-05-03T03:12:42.739Z,928.09
2019-05-03T03:13:45.597Z,928.08
2019-05-03T03:14:45.455Z,928.16
2019-05-03T03:15:45.670Z,928.13
2019-05-03T03:16:45.414Z,928.11
2019-05-03T03:17:45.583Z,928.09
2019-05-03T03:18:45.412Z,928.09
2019-05-03T03:19:45.973Z,928.08
2019-05-03T03:20:44.986Z,928.04
2019-05-03T03:21:46.364Z,928.05
2019-05-03T03:22:45.635Z,928.05
2019-05-03T03:23:45.927Z,928.05
2019-05-03T03:24:45.752Z,928.04
2019-05-03T03:25:46.042Z,928.03
2019-05-03T03:26:46.876Z,928.03
2019-05-03T03:27:45.319Z,927.96
2019-05-03T03:28:46.138Z,927.98
2019-05-03T03:29:45.716Z,927.94
2019-05-03T03:30:48.209Z,927.93
2019-05-03T03:31:47.908Z,927.95
2019-05-03T03:32:47.883Z,927.94
2019-05-03T03:33:47.430Z,927.91
2019-05-03T03:34:54.300Z,927.92
2019-05-03T03:35:48.422Z,927.92
2019-05-03T03:36:58.421Z,927.88
2019-05-03T03:37:46.169Z,927.88
2019-05-03T03:38:45.897Z,927.92
2019-05-03T03:39:45.774Z,927.91
2019-05-03T03:40:45.357Z,927.90
2019-05-03T03:41:45.296Z,927.92
2019-05-03T03:42:44.993Z,927.91
2019-05-03T03:43:46.298Z,927.90
2019-05-03T03:44:45.383Z,927.87
2019-05-03T03:45:45.455Z,927.83
2019-05-03T03:46:45.417Z,927.82
2019-05-03T03:47:46.365Z,927.78
2019-05-03T03:48:46.050Z,927.78
2019-05-03T03:49:46.317Z,927.78
2019-05-03T03:50:45.712Z,927.80
2019-05-03T03:51:45.564Z,927.83
2019-05-03T03:52:45.213Z,927.77
2019-05-03T03:53:46.516Z,927.78
2019-05-03T03:54:45.732Z,927.76
2019-05-03T03:55:45.859Z,927.79
2019-05-03T03:56:56.090Z,927.78
2019-05-03T03:57:46.846Z,927.81
2019-05-03T03:58:46.487Z,927.81
2019-05-03T03:59:45.475Z,927.82
2019-05-03T04:00:46.404Z,927.77
2019-05-03T04:01:45.722Z,927.74
2019-05-03T04:02:45.899Z,927.74
2019-05-03T04:03:46.024Z,927.66
2019-05-03T04:04:45.263Z,927.71
2019-05-03T04:05:46.708Z,927.67
2019-05-03T04:06:46.600Z,927.70
2019-05-03T04:07:46.424Z,927.67
2019-05-03T04:08:45.543Z,927.63
2019-05-03T04:09:45.915Z,927.64
2019-05-03T04:10:46.322Z,927.59
2019-05-03T04:11:46.292Z,927.52
2019-05-03T04:12:45.717Z,927.52
2019-05-03T04:13:45.571Z,927.47
2019-05-03T04:14:45.608Z,927.45
2019-05-03T04:15:45.666Z,927.49
2019-05-03T04:16:45.712Z,927.43
2019-05-03T04:17:45.878Z,927.40
2019-05-03T04:18:45.762Z,927.39
2019-05-03T04:19:45.872Z,927.39
2019-05-03T04:20:46.035Z,927.38
2019-05-03T04:21:45.933Z,927.42
2019-05-03T04:22:46.014Z,927.41
2019-05-03T04:23:46.033Z,927.43
2019-05-03T04:24:46.188Z,927.45
2019-05-03T04:25:46.136Z,927.49
2019-05-03T04:26:46.101Z,927.52
2019-05-03T04:27:46.238Z,927.52
2019-05-03T04:28:46.271Z,927.50
2019-05-03T04:29:46.276Z,927.49
2019-05-03T04:30:46.345Z,927.47
2019-05-03T04:31:46.436Z,927.44
2019-05-03T04:32:46.494Z,927.43
2019-05-03T04:33:46.481Z,927.43
2019-05-03T04:34:46.490Z,927.42
2019-05-03T04:35:46.693Z,927.45
2019-05-03T04:36:46.623Z,927.43
2019-05-03T04:37:46.730Z,927.42
2019-05-03T04:38:46.736Z,927.39
2019-05-03T04:39:46.758Z,927.37
2019-05-03T04:40:46.746Z,927.33
2019-05-03T04:41:46.846Z,927.31
2019-05-03T04:42:46.951Z,927.31
2019-05-03T04:43:46.885Z,927.34
2019-05-03T04:44:46.982Z,927.35
2019-05-03T04:45:47.030Z,927.32
2019-05-03T04:46:47.070Z,927.35
2019-05-03T04:47:47.066Z,927.37
2019-05-03T04:48:47.171Z,927.34
2019-05-03T04:49:47.189Z,927.32
2019-05-03T04:50:47.198Z,927.33
2019-05-03T04:51:47.253Z,927.31
2019-05-03T04:52:47.311Z,927.30
2019-05-03T04:53:47.351Z,927.30
2019-05-03T04:54:47.413Z,927.30
2019-05-03T04:55:47.477Z,927.31
2019-05-03T04:56:47.512Z,927.29
2019-05-03T04:57:50.329Z,927.24
2019-05-03T04:58:47.564Z,927.23
2019-05-03T04:59:47.616Z,927.26
2019-05-03T05:00:47.658Z,927.24
2019-05-03T05:01:47.716Z,927.22
2019-05-03T05:02:47.770Z,927.21
2019-05-03T05:03:47.793Z,927.18
2019-05-03T05:04:47.859Z,927.14
2019-05-03T05:05:47.892Z,927.12
2019-05-03T05:06:47.944Z,927.12
2019-05-03T05:07:47.997Z,927.11
2019-05-03T05:08:48.026Z,927.11
2019-05-03T05:09:48.085Z,927.08
2019-05-03T05:10:48.134Z,927.08
2019-05-03T05:11:48.216Z,927.10
2019-05-03T05:12:48.193Z,927.07
2019-05-03T05:13:48.260Z,927.08
2019-05-03T05:14:48.310Z,927.11
2019-05-03T05:15:48.351Z,927.10
2019-05-03T05:16:48.400Z,927.10
2019-05-03T05:17:48.426Z,927.08
2019-05-03T05:18:48.498Z,927.07
2019-05-03T05:19:48.573Z,927.04
2019-05-03T05:20:48.569Z,927.04
2019-05-03T05:21:48.618Z,927.05
2019-05-03T05:22:48.656Z,927.03
2019-05-03T05:23:48.702Z,927.00
2019-05-03T05:24:48.769Z,927.01
2019-05-03T05:25:48.789Z,927.05
2019-05-03T05:26:48.862Z,927.07
2019-05-03T05:27:54.604Z,927.06
2019-05-03T05:28:48.936Z,927.06
2019-05-03T05:29:48.973Z,927.10
2019-05-03T05:30:49.038Z,927.07
2019-05-03T05:31:49.062Z,927.03
2019-05-03T05:32:49.112Z,927.06
2019-05-03T05:33:49.153Z,927.04
2019-05-03T05:34:49.236Z,927.04
2019-05-03T05:35:49.276Z,927.04
2019-05-03T05:36:49.299Z,927.12
2019-05-03T05:37:49.362Z,927.08
2019-05-03T05:38:49.401Z,927.13
2019-05-03T05:39:49.431Z,927.12
2019-05-03T05:40:49.478Z,927.11
2019-05-03T05:41:49.535Z,927.07
2019-05-03T05:42:49.574Z,927.02
2019-05-03T05:43:49.609Z,927.05
2019-05-03T05:44:49.666Z,927.00
2019-05-03T05:45:49.710Z,927.00
2019-05-03T05:46:49.741Z,927.02
2019-05-03T05:47:49.818Z,926.99
2019-05-03T05:48:49.855Z,926.97
2019-05-03T05:49:49.894Z,926.94
2019-05-03T05:50:49.948Z,926.89
2019-05-03T05:51:49.980Z,926.86
2019-05-03T05:52:50.017Z,926.86
2019-05-03T05:53:50.056Z,926.85
2019-05-03T05:54:50.121Z,926.83
2019-05-03T05:55:50.150Z,926.85
2019-05-03T05:56:50.221Z,926.85
2019-05-03T05:58:01.831Z,926.84
2019-05-03T05:58:50.316Z,926.86
2019-05-03T05:59:50.334Z,926.82
2019-05-03T06:00:50.370Z,926.87
2019-05-03T06:01:50.436Z,926.82
2019-05-03T06:02:50.474Z,926.81
2019-05-03T06:03:50.510Z,926.81
2019-05-03T06:04:50.560Z,926.78
2019-05-03T06:05:50.620Z,926.77
2019-05-03T06:06:50.644Z,926.82
2019-05-03T06:07:50.706Z,926.83
2019-05-03T06:08:50.738Z,926.83
2019-05-03T06:09:50.775Z,926.85
2019-05-03T06:10:50.837Z,926.85
2019-05-03T06:11:50.859Z,926.90
2019-05-03T06:12:50.919Z,926.90
2019-05-03T06:13:50.977Z,926.90
2019-05-03T06:14:51.003Z,926.95
2019-05-03T06:15:51.090Z,926.95
2019-05-03T06:16:51.085Z,926.94
2019-05-03T06:17:51.162Z,926.93
2019-05-03T06:18:51.191Z,926.96
2019-05-03T06:19:51.238Z,926.97
2019-05-03T06:20:51.279Z,927.04
2019-05-03T06:21:51.324Z,926.99
2019-05-03T06:22:51.375Z,927.00
2019-05-03T06:23:51.405Z,926.94
2019-05-03T06:24:51.467Z,926.91
2019-05-03T06:25:51.514Z,926.90
2019-05-03T06:26:51.547Z,926.84
2019-05-03T06:27:51.608Z,926.85
2019-05-03T06:28:51.627Z,926.83
2019-05-03T06:29:51.693Z,926.78
2019-05-03T06:30:51.760Z,926.75
2019-05-03T06:31:51.809Z,926.77
2019-05-03T06:32:51.831Z,926.77
2019-05-03T06:33:52.567Z,926.81
2019-05-03T06:34:51.933Z,926.81
2019-05-03T06:35:51.957Z,926.79
2019-05-03T06:36:52.000Z,926.79
2019-05-03T06:37:52.027Z,926.77
2019-05-03T06:38:52.093Z,926.76
2019-05-03T06:39:52.138Z,926.75
2019-05-03T06:40:52.184Z,926.73
2019-05-03T06:41:52.232Z,926.76
2019-05-03T06:42:54.906Z,926.74
2019-05-03T06:43:52.311Z,926.69
2019-05-03T06:44:54.452Z,926.73
2019-05-03T06:45:52.392Z,926.73
2019-05-03T06:46:52.452Z,926.71
2019-05-03T06:47:52.487Z,926.72
2019-05-03T06:48:54.240Z,926.75
2019-05-03T06:49:52.584Z,926.77
2019-05-03T06:50:52.634Z,926.74
2019-05-03T06:51:54.474Z,926.74
2019-05-03T06:52:54.677Z,926.67
2019-05-03T06:53:54.677Z,926.69
2019-05-03T06:54:52.801Z,926.62
2019-05-03T06:55:52.875Z,926.62
2019-05-03T06:56:52.912Z,926.60
2019-05-03T06:57:54.579Z,926.63
2019-05-03T06:58:54.733Z,926.62
2019-05-03T06:59:54.901Z,926.60
2019-05-03T07:00:55.229Z,926.53
2019-05-03T07:01:55.206Z,926.55
2019-05-03T07:02:54.605Z,926.47
2019-05-03T07:03:54.869Z,926.45
2019-05-03T07:04:53.264Z,926.42
2019-05-03T07:05:54.877Z,926.46
2019-05-03T07:06:55.065Z,926.48
2019-05-03T07:07:54.745Z,926.47
2019-05-03T07:08:54.955Z,926.49
2019-05-03T07:09:54.654Z,926.52
2019-05-03T07:10:54.954Z,926.51
2019-05-03T07:11:55.388Z,926.53
2019-05-03T07:12:54.719Z,926.57
2019-05-03T07:13:54.991Z,926.59
2019-05-03T07:14:54.840Z,926.61
2019-05-03T07:15:55.892Z,926.62
2019-05-03T07:16:55.404Z,926.66
2019-05-03T07:17:55.685Z,926.66
2019-05-03T07:18:56.604Z,926.63
2019-05-03T07:19:54.654Z,926.59
2019-05-03T07:20:56.514Z,926.63
2019-05-03T07:21:54.645Z,926.58
2019-05-03T07:22:55.735Z,926.53
2019-05-03T07:23:55.155Z,926.51
2019-05-03T07:24:54.662Z,926.47
2019-05-03T07:25:55.152Z,926.50
2019-05-03T07:26:55.099Z,926.49
2019-05-03T07:27:55.521Z,926.50
2019-05-03T07:28:54.646Z,926.49
2019-05-03T07:29:55.618Z,926.53
2019-05-03T07:30:54.502Z,926.60
2019-05-03T07:31:54.931Z,926.63
2019-05-03T07:32:54.591Z,926.63
2019-05-03T07:33:55.149Z,926.65
2019-05-03T07:34:55.606Z,926.66
2019-05-03T07:35:54.840Z,926.66
2019-05-03T07:36:55.542Z,926.63
2019-05-03T07:37:55.323Z,926.62
2019-05-03T07:38:55.538Z,926.58
2019-05-03T07:39:55.600Z,926.58
2019-05-03T07:40:55.064Z,926.53
2019-05-03T07:41:55.158Z,926.51
2019-05-03T07:42:55.666Z,926.52
2019-05-03T07:43:55.098Z,926.51
2019-05-03T07:44:56.004Z,926.51
2019-05-03T07:45:55.366Z,926.42
2019-05-03T07:46:55.541Z,926.48
2019-05-03T07:47:55.806Z,926.44
2019-05-03T07:48:55.249Z,926.41
2019-05-03T07:49:55.270Z,926.41
2019-05-03T07:50:55.365Z,926.42
2019-05-03T07:51:55.460Z,926.44
2019-05-03T07:52:55.817Z,926.48
2019-05-03T07:53:55.730Z,926.49
2019-05-03T07:54:55.476Z,926.57
2019-05-03T07:55:55.533Z,926.58
2019-05-03T07:56:55.578Z,926.57
2019-05-03T07:57:55.668Z,926.60
2019-05-03T07:59:02.685Z,926.62
2019-05-03T07:59:55.820Z,926.61
2019-05-03T08:01:05.828Z,926.61
2019-05-03T08:01:55.802Z,926.64
2019-05-03T08:02:55.875Z,926.64
2019-05-03T08:03:55.885Z,926.70
2019-05-03T08:04:55.943Z,926.72
2019-05-03T08:05:56.003Z,926.76
2019-05-03T08:06:56.028Z,926.79
2019-05-03T08:07:56.066Z,926.80
2019-05-03T08:08:56.103Z,926.82
2019-05-03T08:09:56.149Z,926.89
2019-05-03T08:10:56.233Z,926.89
2019-05-03T08:11:56.223Z,926.86
2019-05-03T08:12:56.285Z,926.87
2019-05-03T08:13:56.353Z,926.86
2019-05-03T08:14:56.362Z,926.74
2019-05-03T08:15:56.424Z,926.74
2019-05-03T08:16:56.475Z,926.70
2019-05-03T08:17:56.505Z,926.68
2019-05-03T08:18:56.573Z,926.67
2019-05-03T08:19:56.583Z,926.64
2019-05-03T08:20:56.635Z,926.64
2019-05-03T08:21:56.823Z,926.63
2019-05-03T08:22:56.734Z,926.65
2019-05-03T08:23:56.769Z,926.61
2019-05-03T08:24:56.842Z,926.65
2019-05-03T08:25:56.855Z,926.67
2019-05-03T08:26:56.958Z,926.67
2019-05-03T08:27:56.944Z,926.66
2019-05-03T08:28:56.996Z,926.70
2019-05-03T08:29:57.051Z,926.71
2019-05-03T08:30:57.082Z,926.73
2019-05-03T08:31:57.140Z,926.73
2019-05-03T08:32:57.173Z,926.72
2019-05-03T08:33:57.206Z,926.77
2019-05-03T08:34:57.327Z,926.77
2019-05-03T08:35:57.308Z,926.74
2019-05-03T08:36:57.352Z,926.77
2019-05-03T08:37:57.446Z,926.77
2019-05-03T08:38:57.448Z,926.83
2019-05-03T08:39:57.485Z,926.82
2019-05-03T08:40:57.540Z,926.81
2019-05-03T08:41:57.588Z,926.83
2019-05-03T08:42:57.627Z,926.82
2019-05-03T08:43:57.662Z,926.84
2019-05-03T08:44:57.704Z,926.83
2019-05-03T08:45:57.732Z,926.83
2019-05-03T08:46:57.792Z,926.88
2019-05-03T08:47:57.852Z,926.88
2019-05-03T08:48:57.899Z,926.89
2019-05-03T08:49:57.920Z,926.86
2019-05-03T08:50:57.993Z,926.92
2019-05-03T08:51:58.018Z,926.89
2019-05-03T08:52:58.058Z,926.90
2019-05-03T08:53:58.099Z,926.92
2019-05-03T08:54:58.203Z,926.93
2019-05-03T08:55:58.191Z,926.90
2019-05-03T08:56:58.259Z,926.85
2019-05-03T08:57:58.286Z,926.90
2019-05-03T08:58:58.356Z,926.93
2019-05-03T08:59:58.368Z,926.92
2019-05-03T09:00:58.428Z,926.92
2019-05-03T09:01:58.936Z,926.93
2019-05-03T09:02:58.501Z,926.96
2019-05-03T09:03:58.578Z,926.97
2019-05-03T09:04:58.574Z,926.99
2019-05-03T09:05:58.670Z,927.01
2019-05-03T09:06:58.696Z,927.01
2019-05-03T09:07:58.738Z,927.06
2019-05-03T09:08:58.759Z,927.02
2019-05-03T09:09:58.834Z,927.08
2019-05-03T09:10:58.845Z,927.05
2019-05-03T09:11:58.916Z,927.06
2019-05-03T09:12:58.962Z,927.12
2019-05-03T09:13:58.990Z,927.11
2019-05-03T09:14:59.058Z,927.10
2019-05-03T09:15:59.131Z,927.11
2019-05-03T09:16:59.141Z,927.10
2019-05-03T09:17:59.178Z,927.10
2019-05-03T09:18:59.221Z,927.09
2019-05-03T09:19:59.302Z,927.10
2019-05-03T09:20:59.309Z,927.11
2019-05-03T09:21:59.338Z,927.14
2019-05-03T09:22:59.518Z,927.14
2019-05-03T09:23:59.480Z,927.18
2019-05-03T09:24:59.490Z,927.19
2019-05-03T09:25:59.551Z,927.22
2019-05-03T09:26:59.567Z,927.22
2019-05-03T09:27:59.625Z,927.22
2019-05-03T09:28:59.681Z,927.26
2019-05-03T09:29:59.707Z,927.27
2019-05-03T09:30:59.758Z,927.28
2019-05-03T09:31:59.814Z,927.31
2019-05-03T09:32:59.844Z,927.36
2019-05-03T09:33:59.871Z,927.31
2019-05-03T09:34:59.916Z,927.32
2019-05-03T09:35:59.985Z,927.36
2019-05-03T09:37:00.015Z,927.34
2019-05-03T09:38:00.052Z,927.40
2019-05-03T09:39:00.109Z,927.45
2019-05-03T09:40:00.143Z,927.48
2019-05-03T09:41:00.199Z,927.51
2019-05-03T09:42:00.289Z,927.54
2019-05-03T09:43:00.290Z,927.60
2019-05-03T09:44:00.338Z,927.62
2019-05-03T09:45:00.391Z,927.68
2019-05-03T09:46:00.426Z,927.68
2019-05-03T09:47:00.444Z,927.72
2019-05-03T09:48:00.484Z,927.68
2019-05-03T09:49:11.123Z,927.69
2019-05-03T09:50:02.241Z,927.72
2019-05-03T09:51:00.642Z,927.68
2019-05-03T09:52:00.857Z,927.68
2019-05-03T09:53:00.721Z,927.69
2019-05-03T09:54:00.803Z,927.69
2019-05-03T09:55:00.861Z,927.72
2019-05-03T09:56:00.867Z,927.70
2019-05-03T09:57:00.973Z,927.69
2019-05-03T09:58:00.952Z,927.72
2019-05-03T09:59:01.010Z,927.73
2019-05-03T10:00:01.099Z,927.76
2019-05-03T10:01:01.102Z,927.76
2019-05-03T10:02:01.132Z,927.76
2019-05-03T10:03:01.217Z,927.81
2019-05-03T10:04:01.218Z,927.83
2019-05-03T10:05:01.278Z,927.87
2019-05-03T10:06:01.321Z,927.85
2019-05-03T10:07:01.343Z,927.86
2019-05-03T10:08:01.443Z,927.89
2019-05-03T10:09:01.459Z,927.91
2019-05-03T10:10:01.485Z,927.96
2019-05-03T10:11:01.595Z,927.94
2019-05-03T10:12:01.598Z,927.99
2019-05-03T10:13:01.653Z,928.01
2019-05-03T10:14:01.726Z,928.05
2019-05-03T10:15:01.793Z,928.04
2019-05-03T10:16:01.772Z,928.10
2019-05-03T10:17:01.861Z,928.09
2019-05-03T10:18:08.692Z,928.09
2019-05-03T10:19:01.905Z,928.08
2019-05-03T10:20:01.950Z,928.11
2019-05-03T10:21:03.137Z,928.11
2019-05-03T10:22:02.037Z,928.12
2019-05-03T10:23:02.099Z,928.16
2019-05-03T10:24:02.127Z,928.23
2019-05-03T10:25:02.161Z,928.26
2019-05-03T10:26:02.202Z,928.30
2019-05-03T10:27:02.262Z,928.28
2019-05-03T10:28:02.309Z,928.33
2019-05-03T10:29:02.390Z,928.30
2019-05-03T10:30:10.537Z,928.37
2019-05-03T10:31:05.552Z,928.38
2019-05-03T10:32:02.536Z,928.45
2019-05-03T10:33:02.529Z,928.40
2019-05-03T10:34:02.628Z,928.43
2019-05-03T10:35:02.625Z,928.45
2019-05-03T10:36:02.693Z,928.44
2019-05-03T10:37:05.068Z,928.48
2019-05-03T10:38:02.762Z,928.51
2019-05-03T10:39:04.675Z,928.53
2019-05-03T10:40:07.240Z,928.56
2019-05-03T10:41:02.909Z,928.55
2019-05-03T10:42:04.805Z,928.55
2019-05-03T10:43:04.799Z,928.56
2019-05-03T10:44:03.059Z,928.59
2019-05-03T10:45:04.645Z,928.63
2019-05-03T10:46:05.143Z,928.67
2019-05-03T10:47:05.305Z,928.68
2019-05-03T10:48:04.749Z,928.74
2019-05-03T10:49:05.626Z,928.72
2019-05-03T10:50:04.715Z,928.74
2019-05-03T10:51:04.743Z,928.77
2019-05-03T10:52:05.444Z,928.79
2019-05-03T10:53:05.182Z,928.80
2019-05-03T10:54:05.207Z,928.79
2019-05-03T10:55:05.352Z,928.81
2019-05-03T10:56:05.100Z,928.84
2019-05-03T10:57:05.299Z,928.85
2019-05-03T10:58:05.322Z,928.85
2019-05-03T10:59:06.012Z,928.91
2019-05-03T11:00:05.068Z,928.90
2019-05-03T11:01:04.962Z,928.97
2019-05-03T11:02:03.937Z,928.92
2019-05-03T11:03:05.291Z,928.97
2019-05-03T11:04:05.295Z,929.03
2019-05-03T11:05:05.202Z,929.12
2019-05-03T11:06:05.486Z,929.14
2019-05-03T11:07:05.485Z,929.16
2019-05-03T11:08:04.980Z,929.17
2019-05-03T11:09:05.660Z,929.23
2019-05-03T11:10:05.281Z,929.19
2019-05-03T11:11:05.942Z,929.17
2019-05-03T11:12:05.370Z,929.18
2019-05-03T11:13:05.851Z,929.21
2019-05-03T11:14:05.499Z,929.18
2019-05-03T11:15:04.613Z,929.20
2019-05-03T11:16:05.585Z,929.17
2019-05-03T11:17:05.637Z,929.19
2019-05-03T11:18:05.621Z,929.22
2019-05-03T11:19:05.521Z,929.24
2019-05-03T11:20:05.301Z,929.23
2019-05-03T11:21:05.237Z,929.27
2019-05-03T11:22:05.508Z,929.25
2019-05-03T11:23:05.960Z,929.34
2019-05-03T11:24:05.022Z,929.34
2019-05-03T11:25:05.235Z,929.35
2019-05-03T11:26:05.134Z,929.33
2019-05-03T11:27:05.185Z,929.36
2019-05-03T11:28:05.240Z,929.40
2019-05-03T11:29:05.394Z,929.42
2019-05-03T11:30:05.312Z,929.45
2019-05-03T11:31:05.392Z,929.48
2019-05-03T11:32:09.221Z,929.52
2019-05-03T11:33:05.489Z,929.50
2019-05-03T11:34:05.544Z,929.55
2019-05-03T11:35:05.593Z,929.60
2019-05-03T11:36:05.651Z,929.64
2019-05-03T11:37:05.717Z,929.62
2019-05-03T11:38:05.779Z,929.65
2019-05-03T11:39:05.801Z,929.66
2019-05-03T11:40:05.862Z,929.68
2019-05-03T11:41:05.912Z,929.69
2019-05-03T11:42:05.995Z,929.72
2019-05-03T11:43:06.009Z,929.71
2019-05-03T11:44:06.078Z,929.71
2019-05-03T11:45:06.119Z,929.66
2019-05-03T11:46:06.160Z,929.74
2019-05-03T11:47:06.249Z,929.74
2019-05-03T11:48:06.270Z,929.73
2019-05-03T11:49:06.326Z,929.69
2019-05-03T11:50:06.390Z,929.74
2019-05-03T11:51:06.447Z,929.78
2019-05-03T11:52:06.734Z,929.76
2019-05-03T11:53:06.562Z,929.81
2019-05-03T11:54:06.608Z,929.83
2019-05-03T11:55:11.219Z,929.83
2019-05-03T11:56:06.723Z,929.86
2019-05-03T11:57:06.766Z,929.84
2019-05-03T11:58:06.832Z,929.86
2019-05-03T11:59:06.902Z,929.87
2019-05-03T12:00:06.931Z,929.87
2019-05-03T12:01:15.350Z,929.86
2019-05-03T12:02:07.047Z,929.90
2019-05-03T12:03:07.099Z,929.87
2019-05-03T12:04:07.147Z,929.89
2019-05-03T12:05:07.333Z,929.88
2019-05-03T12:06:07.257Z,929.94
2019-05-03T12:07:07.308Z,929.98
2019-05-03T12:08:07.381Z,930.02
2019-05-03T12:09:07.414Z,930.05
2019-05-03T12:10:16.308Z,930.08
2019-05-03T12:11:07.527Z,930.05
2019-05-03T12:12:07.591Z,930.07
2019-05-03T12:13:07.639Z,930.05
2019-05-03T12:14:07.705Z,930.08
2019-05-03T12:15:07.741Z,930.04
2019-05-03T12:16:18.067Z,930.04
2019-05-03T12:17:18.343Z,930.00
2019-05-03T12:18:08.675Z,930.00
2019-05-03T12:19:17.141Z,929.97
2019-05-03T12:20:09.650Z,929.96
2019-05-03T12:21:09.746Z,930.02
2019-05-03T12:22:08.851Z,930.01
2019-05-03T12:23:08.672Z,929.99
2019-05-03T12:24:08.899Z,929.99
2019-05-03T12:25:10.328Z,930.00
2019-05-03T12:26:12.786Z,930.00
2019-05-03T12:27:08.400Z,930.02
2019-05-03T12:28:08.446Z,930.06
2019-05-03T12:29:08.517Z,930.09